Dubuque Regional Airport
KDBQ : now visible

Airfield :











YOU CAN JOIN US ON...

 
LOGIN :

Register | Disclaimer

   EN    FR    IT 

 









Legend :    VFR   Marginal VFR   IFR   Intensive IFR   Very Intensive IFR
Visi :
Ceiling :
>= 8 km
>= 3000ft
5 to 8 km
1000 to 3000 ft
1500m to 5 km
500 to 1000 ft
800 to 1500m
200 to 500 ft
< 800m
< 200 ft
Symbols :   Thunderstorms  Fog  Heavy snow  Heavy precipitations  Wind > 20 kt






- Airport Elevation : 1077 ft
- IATA code : DBQ


KDBQ - Dubuque Regional

CURRENT METAR :
  • 071453Z 02011G18KT 10SM SCT030 06/01 A3048 RMK AO2 SLP328 T00610011 51022 $

EXPIRED METARs :
  • 071353Z 02011KT 10SM CLR 05/01 A3046 RMK AO2 SLP323 T00500011 $
  • 071253Z 01007KT 10SM CLR 04/01 A3044 RMK AO2 SLP315 T00390011

TAF KDBQ
Valid from the 07 at 12:00 until the 08 at 12:00 UTC


071127Z 0712/0812 02010KT P6SM SCT120
FM071800 36010KT P6SM BKN200
FM080100 34005KT P6SM SCT030
KZAU FIR / North America



MET'MAP, your aeronautical weather chart ! - Copyright ORBIFLY December 2007 - Disclaimer

ORBIFLY MET'MAP TEAM :

Programming & Development : Alexandra Zaïnal
Original concept : Baudouin d'Aumeries
Technical & hardware support : Manuel Goepfert
Assistance : Marc-Olivier Méhu




SOURCES & CREDITS :

   NOAA       Earth
Advisory